createdAt,value
2022-10-23T00:01:44.749Z,84.90
2022-10-23T00:04:13.931Z,84.90
2022-10-23T00:06:43.146Z,84.90
2022-10-23T00:09:12.617Z,84.90
2022-10-23T00:11:39.788Z,84.90
2022-10-23T00:14:08.442Z,84.80
2022-10-23T00:16:35.284Z,84.90
2022-10-23T00:19:03.592Z,85.10
2022-10-23T00:21:30.712Z,85.10
2022-10-23T00:23:58.955Z,85.10
2022-10-23T00:26:26.057Z,85.20
2022-10-23T00:28:53.945Z,85.20
2022-10-23T00:31:22.051Z,85.30
2022-10-23T00:33:49.386Z,85.30
2022-10-23T00:36:18.001Z,85.30
2022-10-23T00:38:45.921Z,85.30
2022-10-23T00:41:18.885Z,85.30
2022-10-23T00:44:03.905Z,85.40
2022-10-23T00:46:31.731Z,85.40
2022-10-23T00:48:59.347Z,85.40
2022-10-23T00:51:29.999Z,85.40
2022-10-23T00:54:06.771Z,85.40
2022-10-23T00:56:48.336Z,85.40
2022-10-23T00:59:15.745Z,85.30
2022-10-23T01:01:42.799Z,85.40
2022-10-23T01:04:10.573Z,85.40
2022-10-23T01:06:43.324Z,85.40
2022-10-23T01:09:17.255Z,85.40
2022-10-23T01:11:52.863Z,85.40
2022-10-23T01:14:27.606Z,85.50
2022-10-23T01:17:00.527Z,85.50
2022-10-23T01:19:42.976Z,85.40
2022-10-23T01:22:22.782Z,85.40
2022-10-23T01:24:56.540Z,85.50
2022-10-23T01:27:29.815Z,85.50
2022-10-23T01:30:06.158Z,85.50
2022-10-23T01:32:44.903Z,85.60
2022-10-23T01:35:13.958Z,85.50
2022-10-23T01:37:43.749Z,85.40
2022-10-23T01:40:17.896Z,85.50
2022-10-23T01:42:49.600Z,85.50
2022-10-23T01:45:21.515Z,85.60
2022-10-23T01:47:49.551Z,85.60
2022-10-23T01:50:18.822Z,85.60
2022-10-23T01:52:45.741Z,85.50
2022-10-23T01:55:14.379Z,85.50
2022-10-23T01:57:44.549Z,85.50
2022-10-23T02:00:16.549Z,85.70
2022-10-23T02:02:44.757Z,85.70
2022-10-23T02:05:16.191Z,85.70
2022-10-23T02:07:44.416Z,85.70
2022-10-23T02:10:12.976Z,85.70
2022-10-23T02:12:48.187Z,85.70
2022-10-23T02:15:25.640Z,85.80
2022-10-23T02:18:03.072Z,85.80
2022-10-23T02:20:38.088Z,85.80
2022-10-23T02:23:16.749Z,85.80
2022-10-23T02:25:50.480Z,85.80
2022-10-23T02:28:24.027Z,85.80
2022-10-23T02:30:53.769Z,85.80
2022-10-23T02:33:20.835Z,85.90
2022-10-23T02:35:49.180Z,85.80
2022-10-23T02:38:32.866Z,85.80
2022-10-23T02:41:13.445Z,85.80
2022-10-23T02:43:46.835Z,85.90
2022-10-23T02:46:23.039Z,85.90
2022-10-23T02:49:00.292Z,85.90
2022-10-23T02:51:38.960Z,85.90
2022-10-23T02:54:08.849Z,85.90
2022-10-23T02:56:42.210Z,85.90
2022-10-23T02:59:16.306Z,85.90
2022-10-23T03:01:49.970Z,86.00
2022-10-23T03:04:18.453Z,86.00
2022-10-23T03:06:46.212Z,86.00
2022-10-23T03:09:13.021Z,86.10
2022-10-23T03:11:40.005Z,86.10
2022-10-23T03:14:07.131Z,86.10
2022-10-23T03:16:36.563Z,86.20
2022-10-23T03:19:05.480Z,86.00
2022-10-23T03:21:32.327Z,86.20
2022-10-23T03:23:59.144Z,86.20
2022-10-23T03:26:25.982Z,86.20
2022-10-23T03:28:52.945Z,86.10
2022-10-23T03:31:20.096Z,86.20
2022-10-23T03:33:47.201Z,86.20
2022-10-23T03:36:15.342Z,86.30
2022-10-23T03:38:42.267Z,86.20
2022-10-23T03:41:09.046Z,86.20
2022-10-23T03:43:35.942Z,86.20
2022-10-23T03:46:04.633Z,86.10
2022-10-23T03:48:32.623Z,86.30
2022-10-23T03:50:59.834Z,86.20
2022-10-23T03:53:27.981Z,86.20
2022-10-23T03:55:54.794Z,86.30
2022-10-23T03:58:21.655Z,86.30
2022-10-23T04:00:48.837Z,86.30
2022-10-23T04:03:15.727Z,86.30
2022-10-23T04:05:45.294Z,86.30
2022-10-23T04:08:20.098Z,86.20
2022-10-23T04:10:48.945Z,86.30
2022-10-23T04:13:15.839Z,86.30
2022-10-23T04:15:49.340Z,86.40
2022-10-23T04:18:16.312Z,86.30
2022-10-23T04:20:47.089Z,86.40
2022-10-23T04:23:22.580Z,86.40
2022-10-23T04:25:50.709Z,86.40
2022-10-23T04:28:20.545Z,86.40
2022-10-23T04:30:47.335Z,86.50
2022-10-23T04:33:14.391Z,86.50
2022-10-23T04:35:41.212Z,86.50
2022-10-23T04:38:08.260Z,86.30
2022-10-23T04:40:35.290Z,86.30
2022-10-23T04:43:03.577Z,86.50
2022-10-23T04:45:30.405Z,86.50
2022-10-23T04:47:57.296Z,86.40
2022-10-23T04:50:24.185Z,86.30
2022-10-23T04:52:54.756Z,86.30
2022-10-23T04:55:21.688Z,86.30
2022-10-23T04:57:48.780Z,86.40
2022-10-23T05:00:18.872Z,86.40
2022-10-23T05:02:46.099Z,86.40
2022-10-23T05:05:12.931Z,86.50
2022-10-23T05:07:40.808Z,86.50
2022-10-23T05:10:08.602Z,86.50
2022-10-23T05:12:35.390Z,86.40
2022-10-23T05:15:02.434Z,86.40
2022-10-23T05:17:34.626Z,86.50
2022-10-23T05:20:06.009Z,86.50
2022-10-23T05:22:36.336Z,86.50
2022-10-23T05:25:06.190Z,86.50
2022-10-23T05:27:33.259Z,86.40
2022-10-23T05:30:00.077Z,86.50
2022-10-23T05:32:29.634Z,86.70
2022-10-23T05:35:00.283Z,86.50
2022-10-23T05:37:27.711Z,86.50
2022-10-23T05:39:54.749Z,86.50
2022-10-23T05:42:24.012Z,86.50
2022-10-23T05:44:50.812Z,86.50
2022-10-23T05:47:18.023Z,86.60
2022-10-23T05:49:44.852Z,86.40
2022-10-23T05:52:13.593Z,86.50
2022-10-23T05:54:40.648Z,86.40
2022-10-23T05:57:07.561Z,86.50
2022-10-23T05:59:34.776Z,86.60
2022-10-23T06:02:01.679Z,86.50
2022-10-23T06:04:29.059Z,86.60
2022-10-23T06:06:55.829Z,86.50
2022-10-23T06:09:24.391Z,86.50
2022-10-23T06:11:51.265Z,86.50
2022-10-23T06:14:18.528Z,86.70
2022-10-23T06:16:45.566Z,86.70
2022-10-23T06:19:12.957Z,86.60
2022-10-23T06:21:40.428Z,86.60
2022-10-23T06:24:07.949Z,86.60
2022-10-23T06:26:36.450Z,86.60
2022-10-23T06:29:03.566Z,86.60
2022-10-23T06:31:30.425Z,86.60
2022-10-23T06:33:58.382Z,86.70
2022-10-23T06:36:26.343Z,86.60
2022-10-23T06:38:53.244Z,86.60
2022-10-23T06:41:22.148Z,86.60
2022-10-23T06:43:51.624Z,86.60
2022-10-23T06:46:20.077Z,86.80
2022-10-23T06:48:47.276Z,86.70
2022-10-23T06:51:17.080Z,86.60
2022-10-23T06:53:44.879Z,86.60
2022-10-23T06:56:12.654Z,86.70
2022-10-23T06:58:40.595Z,86.70
2022-10-23T07:01:11.548Z,86.70
2022-10-23T07:03:39.213Z,86.70
2022-10-23T07:06:08.945Z,86.70
2022-10-23T07:08:36.487Z,86.80
2022-10-23T07:11:05.025Z,86.70
2022-10-23T07:13:33.462Z,86.70
2022-10-23T07:16:08.670Z,86.70
2022-10-23T07:18:36.843Z,86.80
2022-10-23T07:21:03.925Z,87.00
2022-10-23T07:23:30.709Z,86.80
2022-10-23T07:26:04.012Z,86.70
2022-10-23T07:28:30.832Z,86.80
2022-10-23T07:30:58.699Z,86.90
2022-10-23T07:33:25.556Z,86.90
2022-10-23T07:35:53.789Z,86.90
2022-10-23T07:38:20.661Z,86.90
2022-10-23T07:40:47.610Z,86.80
2022-10-23T07:43:14.515Z,86.80
2022-10-23T07:45:41.509Z,86.70
2022-10-23T07:48:08.439Z,86.80
2022-10-23T07:50:37.895Z,86.80
2022-10-23T07:53:06.041Z,86.80
2022-10-23T07:55:32.976Z,86.70
2022-10-23T07:57:59.940Z,86.70
2022-10-23T08:00:26.824Z,86.80
2022-10-23T08:02:53.824Z,86.60
2022-10-23T08:05:20.861Z,86.90
2022-10-23T08:07:48.319Z,86.80
2022-10-23T08:10:18.751Z,86.80
2022-10-23T08:12:45.734Z,86.80
2022-10-23T08:15:12.881Z,86.80
2022-10-23T08:17:39.776Z,86.70
2022-10-23T08:20:07.915Z,86.70
2022-10-23T08:22:36.878Z,86.80
2022-10-23T08:25:04.232Z,86.80
2022-10-23T08:27:32.688Z,86.60
2022-10-23T08:29:59.941Z,86.70
2022-10-23T08:32:29.323Z,86.70
2022-10-23T08:34:56.420Z,86.70
2022-10-23T08:37:23.407Z,86.80
2022-10-23T08:39:52.658Z,86.70
2022-10-23T08:42:23.211Z,86.70
2022-10-23T08:45:01.638Z,86.80
2022-10-23T08:47:34.321Z,86.80
2022-10-23T08:50:08.342Z,86.70
2022-10-23T08:52:39.274Z,86.70
2022-10-23T08:55:15.881Z,86.70
2022-10-23T08:57:50.535Z,86.60
2022-10-23T09:00:19.649Z,86.60
2022-10-23T09:02:48.000Z,86.60
2022-10-23T09:05:19.588Z,86.50
2022-10-23T09:08:01.110Z,86.40
2022-10-23T09:11:00.345Z,86.40
2022-10-23T09:13:50.125Z,86.40
2022-10-23T09:16:28.457Z,86.40
2022-10-23T09:18:56.311Z,86.30
2022-10-23T09:21:27.463Z,86.30
2022-10-23T09:23:54.323Z,86.30
2022-10-23T09:26:21.955Z,86.30
2022-10-23T09:28:51.773Z,86.40
2022-10-23T09:31:21.054Z,86.30
2022-10-23T09:33:55.831Z,86.30
2022-10-23T09:36:27.664Z,86.30
2022-10-23T09:38:56.384Z,86.30
2022-10-23T09:41:28.348Z,86.30
2022-10-23T09:44:09.587Z,86.30
2022-10-23T09:46:42.667Z,86.30
2022-10-23T09:49:20.344Z,86.30
2022-10-23T09:51:56.564Z,86.30
2022-10-23T09:54:24.134Z,86.30
2022-10-23T09:56:53.087Z,86.20
2022-10-23T09:59:23.932Z,86.20
2022-10-23T10:01:54.191Z,86.10
2022-10-23T10:04:35.433Z,86.20
2022-10-23T10:07:03.873Z,86.20
2022-10-23T10:09:30.776Z,86.00
2022-10-23T10:12:05.376Z,86.10
2022-10-23T10:14:56.513Z,86.10
2022-10-23T10:17:35.159Z,86.10
2022-10-23T10:20:27.518Z,86.10
2022-10-23T10:23:02.053Z,86.00
2022-10-23T10:25:35.659Z,85.90
2022-10-23T10:28:24.691Z,85.80
2022-10-23T10:31:02.402Z,85.80
2022-10-23T10:33:36.980Z,85.90
2022-10-23T10:36:17.996Z,85.80
2022-10-23T10:38:50.578Z,85.80
2022-10-23T10:41:42.273Z,85.80
2022-10-23T10:44:35.578Z,85.80
2022-10-23T10:47:13.263Z,85.70
2022-10-23T10:49:52.980Z,85.60
2022-10-23T10:52:27.577Z,85.60
2022-10-23T10:55:02.508Z,85.60
2022-10-23T10:57:32.647Z,85.60
2022-10-23T11:00:06.664Z,85.60
2022-10-23T11:02:42.504Z,85.50
2022-10-23T11:05:22.302Z,85.50
2022-10-23T11:07:55.654Z,85.40
2022-10-23T11:10:23.156Z,85.40
2022-10-23T11:12:51.158Z,85.30
2022-10-23T11:15:21.720Z,85.30
2022-10-23T11:17:51.156Z,85.30
2022-10-23T11:20:40.638Z,85.30
2022-10-23T11:23:29.762Z,85.30
2022-10-23T11:26:17.492Z,85.20
2022-10-23T11:28:59.022Z,85.10
2022-10-23T11:31:34.023Z,85.10
2022-10-23T11:34:33.996Z,85.10
2022-10-23T11:37:06.680Z,85.00
2022-10-23T11:39:35.611Z,84.90
2022-10-23T11:42:13.992Z,84.80
2022-10-23T11:44:44.111Z,84.60
2022-10-23T11:47:39.298Z,84.50
2022-10-23T11:50:16.849Z,84.30
2022-10-23T11:53:13.559Z,84.10
2022-10-23T11:55:57.546Z,84.00
2022-10-23T11:58:31.859Z,84.10
2022-10-23T12:01:04.127Z,83.90
2022-10-23T12:03:40.938Z,83.70
2022-10-23T12:06:19.635Z,83.60
2022-10-23T12:08:52.296Z,83.70
2022-10-23T12:11:42.223Z,83.60
2022-10-23T12:14:28.238Z,83.50
2022-10-23T12:16:55.592Z,83.50
2022-10-23T12:19:25.352Z,83.60
2022-10-23T12:21:54.090Z,83.50
2022-10-23T12:24:43.128Z,83.50
2022-10-23T12:27:32.304Z,83.30
2022-10-23T12:30:14.330Z,83.10
2022-10-23T12:33:18.537Z,82.90
2022-10-23T12:36:30.468Z,83.00
2022-10-23T12:38:58.644Z,83.00
2022-10-23T12:41:28.614Z,83.00
2022-10-23T12:43:58.311Z,82.80
2022-10-23T12:46:32.371Z,82.90
2022-10-23T12:49:01.342Z,83.00
2022-10-23T12:51:30.170Z,82.80
2022-10-23T12:53:57.518Z,82.90
2022-10-23T12:56:28.603Z,82.80
2022-10-23T12:59:02.109Z,82.80
2022-10-23T13:01:31.067Z,82.80
2022-10-23T13:04:00.904Z,82.50
2022-10-23T13:06:28.108Z,82.70
2022-10-23T13:08:56.232Z,82.70
2022-10-23T13:11:24.453Z,82.50
2022-10-23T13:13:53.220Z,82.60
2022-10-23T13:16:21.952Z,82.40
2022-10-23T13:21:31.008Z,82.50
2022-10-23T13:23:58.086Z,82.50
2022-10-23T13:26:31.126Z,82.60
2022-10-23T13:29:17.463Z,82.40
2022-10-23T13:31:44.330Z,82.30
2022-10-23T13:34:22.418Z,82.30
2022-10-23T13:36:53.669Z,82.40
2022-10-23T13:39:24.891Z,82.10
2022-10-23T13:41:52.607Z,82.00
2022-10-23T13:44:23.539Z,82.20
2022-10-23T13:46:52.127Z,82.10
2022-10-23T13:49:19.844Z,82.10
2022-10-23T13:51:50.264Z,82.00
2022-10-23T13:54:19.613Z,82.00
2022-10-23T13:56:47.061Z,81.90
2022-10-23T13:59:14.843Z,81.90
2022-10-23T14:01:45.455Z,81.90
2022-10-23T14:04:13.726Z,81.80
2022-10-23T14:06:42.040Z,81.90
2022-10-23T14:09:12.397Z,81.80
2022-10-23T14:11:39.835Z,81.80
2022-10-23T14:14:06.832Z,81.90
2022-10-23T14:16:33.739Z,81.70
2022-10-23T14:19:02.419Z,81.60
2022-10-23T14:21:32.192Z,81.80
2022-10-23T14:23:59.170Z,81.70
2022-10-23T14:26:30.059Z,81.70
2022-10-23T14:28:59.558Z,81.70
2022-10-23T14:31:32.899Z,81.60
2022-10-23T14:34:01.644Z,81.50
2022-10-23T14:36:38.801Z,81.50
2022-10-23T14:39:17.423Z,81.00
2022-10-23T14:41:44.349Z,81.20
2022-10-23T14:44:13.684Z,81.30
2022-10-23T14:46:40.717Z,81.40
2022-10-23T14:49:07.627Z,81.10
2022-10-23T14:51:36.325Z,81.00
2022-10-23T14:54:05.207Z,81.10
2022-10-23T14:56:33.162Z,81.10
2022-10-23T14:59:03.680Z,81.10
2022-10-23T15:01:31.017Z,81.10
2022-10-23T15:03:57.965Z,81.00
2022-10-23T15:06:25.056Z,80.90
2022-10-23T15:08:55.729Z,81.10
2022-10-23T15:11:24.154Z,80.80
2022-10-23T15:13:51.632Z,80.80
2022-10-23T15:16:19.108Z,81.00
2022-10-23T15:18:46.034Z,81.00
2022-10-23T15:21:14.311Z,80.90
2022-10-23T15:23:44.643Z,80.70
2022-10-23T15:26:17.263Z,80.90
2022-10-23T15:28:44.610Z,80.70
2022-10-23T15:31:41.967Z,80.80
2022-10-23T15:34:10.111Z,80.80
2022-10-23T15:36:36.948Z,80.80
2022-10-23T15:39:08.237Z,80.70
2022-10-23T15:41:38.874Z,80.90
2022-10-23T15:44:07.071Z,80.90
2022-10-23T15:46:34.555Z,80.90
2022-10-23T15:49:01.388Z,80.90
2022-10-23T15:51:28.451Z,80.90
2022-10-23T15:53:57.013Z,80.90
2022-10-23T15:56:24.061Z,80.60
2022-10-23T15:58:52.568Z,80.80
2022-10-23T16:01:19.762Z,80.70
2022-10-23T16:03:47.131Z,80.80
2022-10-23T16:06:18.773Z,80.80
2022-10-23T16:08:45.763Z,80.80
2022-10-23T16:11:16.796Z,80.70
2022-10-23T16:13:44.240Z,80.60
2022-10-23T16:16:13.129Z,80.50
2022-10-23T16:18:41.376Z,80.60
2022-10-23T16:21:15.478Z,80.50
2022-10-23T16:23:42.488Z,80.60
2022-10-23T16:26:11.644Z,80.60
2022-10-23T16:28:38.560Z,80.50
2022-10-23T16:31:09.297Z,80.50
2022-10-23T16:33:37.917Z,80.40
2022-10-23T16:36:05.919Z,80.40
2022-10-23T16:38:32.845Z,80.40
2022-10-23T16:41:02.450Z,80.30
2022-10-23T16:43:33.380Z,80.20
2022-10-23T16:46:02.218Z,80.10
2022-10-23T16:48:29.615Z,80.00
2022-10-23T16:50:58.376Z,80.00
2022-10-23T16:53:28.943Z,80.00
2022-10-23T16:55:56.696Z,80.00
2022-10-23T16:58:26.144Z,80.10
2022-10-23T17:00:57.630Z,80.10
2022-10-23T17:03:25.193Z,80.10
2022-10-23T17:05:52.151Z,80.10
2022-10-23T17:08:20.508Z,80.20
2022-10-23T17:10:47.383Z,80.20
2022-10-23T17:13:14.337Z,80.30
2022-10-23T17:15:41.214Z,80.30
2022-10-23T17:18:08.380Z,80.40
2022-10-23T17:20:35.225Z,80.30
2022-10-23T17:23:05.289Z,80.30
2022-10-23T17:25:33.514Z,80.40
2022-10-23T17:28:00.349Z,80.40
2022-10-23T17:30:27.317Z,80.40
2022-10-23T17:32:58.182Z,80.50
2022-10-23T17:35:28.255Z,80.50
2022-10-23T17:37:55.843Z,80.60
2022-10-23T17:40:25.055Z,80.60
2022-10-23T17:42:53.703Z,80.60
2022-10-23T17:45:20.533Z,80.70
2022-10-23T17:47:47.386Z,80.70
2022-10-23T17:50:14.494Z,80.70
2022-10-23T17:52:42.331Z,80.70
2022-10-23T17:55:09.979Z,80.80
2022-10-23T17:57:36.861Z,80.80
2022-10-23T18:00:07.396Z,80.80
2022-10-23T18:02:34.767Z,80.90
2022-10-23T18:05:05.461Z,80.90
2022-10-23T18:07:32.376Z,80.90
2022-10-23T18:10:05.603Z,81.00
2022-10-23T18:12:32.648Z,81.00
2022-10-23T18:15:00.888Z,81.00
2022-10-23T18:17:29.432Z,81.00
2022-10-23T18:20:00.928Z,81.10
2022-10-23T18:22:33.144Z,81.10
2022-10-23T18:25:00.344Z,81.10
2022-10-23T18:27:27.212Z,81.10
2022-10-23T18:29:54.116Z,81.20
2022-10-23T18:32:21.217Z,81.20
2022-10-23T18:34:50.990Z,81.20
2022-10-23T18:37:20.868Z,81.20
2022-10-23T18:39:47.900Z,81.20
2022-10-23T18:42:14.725Z,81.20
2022-10-23T18:44:49.278Z,81.20
2022-10-23T18:49:49.459Z,81.20
2022-10-23T18:52:16.269Z,81.30
2022-10-23T18:54:43.287Z,81.30
2022-10-23T18:57:10.322Z,81.40
2022-10-23T18:59:37.473Z,81.50
2022-10-23T19:02:04.560Z,81.70
2022-10-23T19:04:34.141Z,81.70
2022-10-23T19:07:04.064Z,81.80
2022-10-23T19:09:31.608Z,82.00
2022-10-23T19:12:00.593Z,82.10
2022-10-23T19:14:28.742Z,82.10
2022-10-23T19:17:01.674Z,82.20
2022-10-23T19:19:33.680Z,82.20
2022-10-23T19:22:04.389Z,82.20
2022-10-23T19:24:36.844Z,82.10
2022-10-23T19:27:04.492Z,82.10
2022-10-23T19:29:32.187Z,82.10
2022-10-23T19:31:59.408Z,82.00
2022-10-23T19:34:26.589Z,82.00
2022-10-23T19:36:54.792Z,82.00
2022-10-23T19:39:23.561Z,82.00
2022-10-23T19:41:51.580Z,82.00
2022-10-23T19:44:19.633Z,82.10
2022-10-23T19:46:47.006Z,82.10
2022-10-23T19:49:14.151Z,82.10
2022-10-23T19:51:46.998Z,82.00
2022-10-23T19:54:17.392Z,82.10
2022-10-23T19:56:45.924Z,82.00
2022-10-23T19:59:15.748Z,82.10
2022-10-23T20:01:46.323Z,82.10
2022-10-23T20:04:14.937Z,82.20
2022-10-23T20:06:41.720Z,82.30
2022-10-23T20:09:09.969Z,82.30
2022-10-23T20:11:38.403Z,82.30
2022-10-23T20:14:07.653Z,82.40
2022-10-23T20:16:37.508Z,82.50
2022-10-23T20:19:08.872Z,82.50
2022-10-23T20:21:36.745Z,82.50
2022-10-23T20:24:03.911Z,82.60
2022-10-23T20:26:30.776Z,82.60
2022-10-23T20:28:57.853Z,82.60
2022-10-23T20:31:27.443Z,82.70
2022-10-23T20:33:54.689Z,82.70
2022-10-23T20:36:25.179Z,82.80
2022-10-23T20:38:52.402Z,82.80
2022-10-23T20:41:19.721Z,82.90
2022-10-23T20:43:46.719Z,82.90
2022-10-23T20:46:13.518Z,83.00
2022-10-23T20:48:43.088Z,83.00
2022-10-23T20:51:12.057Z,82.90
2022-10-23T20:53:39.143Z,82.90
2022-10-23T20:56:07.378Z,82.80
2022-10-23T20:58:34.654Z,82.60
2022-10-23T21:01:05.772Z,82.60
2022-10-23T21:03:33.099Z,82.60
2022-10-23T21:06:05.475Z,82.50
2022-10-23T21:08:32.277Z,82.50
2022-10-23T21:10:59.861Z,82.40
2022-10-23T21:13:26.949Z,82.20
2022-10-23T21:15:54.180Z,82.10
2022-10-23T21:18:45.437Z,82.10
2022-10-23T21:21:17.364Z,82.00
2022-10-23T21:23:44.607Z,82.00
2022-10-23T21:26:11.812Z,81.80
2022-10-23T21:28:40.022Z,81.70
2022-10-23T21:31:09.961Z,81.60
2022-10-23T21:33:37.513Z,81.70
2022-10-23T21:36:13.423Z,81.60
2022-10-23T21:38:42.845Z,81.70
2022-10-23T21:41:11.635Z,81.60
2022-10-23T21:43:38.694Z,81.70
2022-10-23T21:46:06.739Z,81.60
2022-10-23T21:48:33.605Z,81.60
2022-10-23T21:51:01.057Z,81.50
2022-10-23T21:53:28.509Z,81.40
2022-10-23T21:56:02.279Z,81.50
2022-10-23T21:58:29.141Z,81.40
2022-10-23T22:00:56.260Z,81.50
2022-10-23T22:03:23.266Z,81.50
2022-10-23T22:05:50.347Z,81.50
2022-10-23T22:08:17.206Z,81.50
2022-10-23T22:10:44.025Z,81.50
2022-10-23T22:13:12.241Z,81.50
2022-10-23T22:15:39.129Z,81.50
2022-10-23T22:18:06.040Z,81.60
2022-10-23T22:20:33.332Z,81.60
2022-10-23T22:23:00.150Z,81.60
2022-10-23T22:25:27.160Z,81.70
2022-10-23T22:27:54.103Z,81.70
2022-10-23T22:30:22.627Z,81.80
2022-10-23T22:32:49.445Z,81.80
2022-10-23T22:35:19.196Z,81.80
2022-10-23T22:37:46.064Z,81.80
2022-10-23T22:40:13.166Z,81.90
2022-10-23T22:42:40.238Z,81.80
2022-10-23T22:45:08.381Z,81.70
2022-10-23T22:47:36.507Z,81.70
2022-10-23T22:50:03.575Z,81.70
2022-10-23T22:52:30.466Z,81.70
2022-10-23T22:54:57.295Z,81.70
2022-10-23T22:57:24.624Z,81.70
2022-10-23T22:59:51.500Z,81.70
2022-10-23T23:02:18.963Z,81.80
2022-10-23T23:04:47.364Z,81.90
2022-10-23T23:07:14.151Z,81.90
2022-10-23T23:09:42.919Z,82.00
2022-10-23T23:12:12.499Z,82.00
2022-10-23T23:14:40.175Z,82.30
2022-10-23T23:17:08.182Z,82.30
2022-10-23T23:19:35.316Z,82.50
2022-10-23T23:22:04.246Z,82.70
2022-10-23T23:24:32.114Z,82.80
2022-10-23T23:26:58.941Z,82.90
2022-10-23T23:29:25.982Z,83.00
2022-10-23T23:31:52.860Z,83.00
2022-10-23T23:34:20.125Z,83.10
2022-10-23T23:36:47.096Z,83.20
2022-10-23T23:39:15.237Z,83.10
2022-10-23T23:41:42.183Z,83.10
2022-10-23T23:44:10.049Z,83.20
2022-10-23T23:46:37.207Z,83.20
2022-10-23T23:49:04.108Z,83.40
2022-10-23T23:51:31.369Z,83.30
2022-10-23T23:53:58.205Z,83.30
2022-10-23T23:56:28.053Z,83.40
2022-10-23T23:58:54.868Z,83.40
